Portada
METAR-TAF:

METAR-TAF

Aeroports :

Ranchi, Índia

latitud: 23-18-51N, longitud: 85-19-18E, altitud: 646 m

Observació

L'informe es va fer fa 12 minuts, a les 19:00 UTC
Vent calma
Temperatura 21°C
Humitat 88%
Pressió 1017 hPa
Visibilitat: 2500 m
Escasses núvols a una alçada de 2000 ft
Núvols disperses a una alçada de 10000 ft
calitja

METAR: VERC 161900Z 00000KT 2500 HZ FEW020 SCT100 21/19 Q1017 NOSIG

Hora: 00:42 (19:12 UTC)

Pronòstic

L'informe es va fer fa 2 hores i 12 minuts, a les 17:00 UTC
Pronòstic vàlid del 16 a les 18 UTC al 17 a les 03 UTC
Vent kt del Nord
Visibilitat: 2500 m
Núvols disperses a una alçada de 2000 ft
Núvols disperses a una alçada de 10000 ft
boirina, calitja
Evolucionant progressivament
l' 16 a les 23 UTC al 17 a les 01 UTC
Visibilitat: 1500 m
boirina, calitja

TAF: VERC 161700Z 1618/1703 00000KT 2500 BR HZ SCT020 SCT100 BECMG 1623/1701 1500 BR HZ

Observacions i pronòstics meteorològics de més de 4000 aeroports (METAR i TAF).

Les estacions disponibles són els punts grocs i vermells al mapa.

Posi el ratolí al punt desitjat per veure el nom de l'estació.

Feu clic per veure les observacions i els pronòstics meteorològics.

Per canviar el mapa: feu clic els botons verds amb una creu de color negre per apropar; al botó verd amb un guió per allunyar la imatge; o en les fletxes verdes per a mapes adjacents.


METAR-TAF: